sensor_id;sensor_type;location;lat;lon;timestamp;pressure;altitude;pressure_sealevel;temperature;humidity
6132;BME280;3097;42.692;23.278;2023-04-25T00:00:16;94206.25;;;12.43;98.27
6132;BME280;3097;42.692;23.278;2023-04-25T00:02:42;94249.59;;;12.67;97.32
6132;BME280;3097;42.692;23.278;2023-04-25T00:05:08;94234.56;;;12.59;97.53
6132;BME280;3097;42.692;23.278;2023-04-25T00:07:34;94232.03;;;12.69;96.63
6132;BME280;3097;42.692;23.278;2023-04-25T00:10:00;94189.91;;;12.32;97.32
6132;BME280;3097;42.692;23.278;2023-04-25T00:12:26;94204.00;;;12.51;97.05
6132;BME280;3097;42.692;23.278;2023-04-25T00:14:54;94207.44;;;12.62;97.45
6132;BME280;3097;42.692;23.278;2023-04-25T00:17:22;94176.53;;;12.40;96.12
6132;BME280;3097;42.692;23.278;2023-04-25T00:19:50;94219.63;;;12.71;96.83
6132;BME280;3097;42.692;23.278;2023-04-25T00:22:15;94218.91;;;12.81;97.55
6132;BME280;3097;42.692;23.278;2023-04-25T00:24:41;94218.34;;;12.74;96.52
6132;BME280;3097;42.692;23.278;2023-04-25T00:27:07;94210.59;;;12.79;96.59
6132;BME280;3097;42.692;23.278;2023-04-25T00:29:33;94219.44;;;12.83;94.99
6132;BME280;3097;42.692;23.278;2023-04-25T00:31:58;94207.22;;;12.73;94.25
6132;BME280;3097;42.692;23.278;2023-04-25T00:34:24;94210.28;;;12.65;96.05
6132;BME280;3097;42.692;23.278;2023-04-25T00:36:49;94220.63;;;12.65;97.62
6132;BME280;3097;42.692;23.278;2023-04-25T00:39:15;94228.84;;;12.57;97.45
6132;BME280;3097;42.692;23.278;2023-04-25T00:41:40;94202.84;;;12.32;97.86
6132;BME280;3097;42.692;23.278;2023-04-25T00:44:08;94225.38;;;12.41;98.04
6132;BME280;3097;42.692;23.278;2023-04-25T00:46:36;94222.53;;;12.38;98.19
6132;BME280;3097;42.692;23.278;2023-04-25T00:49:02;94222.53;;;12.43;98.47
6132;BME280;3097;42.692;23.278;2023-04-25T00:51:27;94220.75;;;12.44;98.52
6132;BME280;3097;42.692;23.278;2023-04-25T00:53:53;94214.81;;;12.48;98.32
6132;BME280;3097;42.692;23.278;2023-04-25T00:56:19;94209.31;;;12.34;97.33
6132;BME280;3097;42.692;23.278;2023-04-25T00:58:45;94218.38;;;12.37;96.29
6132;BME280;3097;42.692;23.278;2023-04-25T01:01:11;94208.06;;;12.42;96.97
6132;BME280;3097;42.692;23.278;2023-04-25T01:03:38;94158.81;;;12.17;95.91
6132;BME280;3097;42.692;23.278;2023-04-25T01:06:11;94189.19;;;12.41;96.99
6132;BME280;3097;42.692;23.278;2023-04-25T01:08:38;94182.63;;;12.24;97.79
6132;BME280;3097;42.692;23.278;2023-04-25T01:11:04;94155.66;;;12.10;97.89
6132;BME280;3097;42.692;23.278;2023-04-25T01:13:30;94182.44;;;12.35;97.60
6132;BME280;3097;42.692;23.278;2023-04-25T01:15:58;94181.41;;;12.36;97.58
6132;BME280;3097;42.692;23.278;2023-04-25T01:18:23;94182.72;;;12.39;96.40
6132;BME280;3097;42.692;23.278;2023-04-25T01:20:51;94165.41;;;12.39;96.21
6132;BME280;3097;42.692;23.278;2023-04-25T01:23:16;94160.19;;;12.29;97.21
6132;BME280;3097;42.692;23.278;2023-04-25T01:25:42;94180.16;;;12.44;97.92
6132;BME280;3097;42.692;23.278;2023-04-25T01:28:08;94179.63;;;12.42;98.41
6132;BME280;3097;42.692;23.278;2023-04-25T01:30:34;94176.25;;;12.41;98.90
6132;BME280;3097;42.692;23.278;2023-04-25T01:33:00;94179.94;;;12.46;98.92
6132;BME280;3097;42.692;23.278;2023-04-25T01:35:26;94172.19;;;12.51;98.67
6132;BME280;3097;42.692;23.278;2023-04-25T01:37:52;94164.38;;;12.40;99.09
6132;BME280;3097;42.692;23.278;2023-04-25T01:40:17;94182.94;;;12.32;99.78
6132;BME280;3097;42.692;23.278;2023-04-25T01:42:44;94181.06;;;12.23;100.00
6132;BME280;3097;42.692;23.278;2023-04-25T01:45:11;94173.47;;;12.11;100.00
6132;BME280;3097;42.692;23.278;2023-04-25T01:47:38;94143.91;;;11.92;100.00
6132;BME280;3097;42.692;23.278;2023-04-25T01:50:06;94178.94;;;12.15;100.00
6132;BME280;3097;42.692;23.278;2023-04-25T01:52:31;94182.28;;;12.10;100.00
6132;BME280;3097;42.692;23.278;2023-04-25T01:54:57;94185.00;;;11.98;100.00
6132;BME280;3097;42.692;23.278;2023-04-25T01:57:24;94190.16;;;11.98;100.00
6132;BME280;3097;42.692;23.278;2023-04-25T01:59:50;94182.16;;;11.95;100.00
6132;BME280;3097;42.692;23.278;2023-04-25T02:02:15;94171.03;;;11.94;100.00
6132;BME280;3097;42.692;23.278;2023-04-25T02:04:40;94192.78;;;12.03;100.00
6132;BME280;3097;42.692;23.278;2023-04-25T02:07:06;94175.75;;;12.02;100.00
6132;BME280;3097;42.692;23.278;2023-04-25T02:09:31;94176.31;;;12.10;100.00
6132;BME280;3097;42.692;23.278;2023-04-25T02:11:57;94166.34;;;11.91;100.00
6132;BME280;3097;42.692;23.278;2023-04-25T02:14:23;94169.19;;;11.90;100.00
6132;BME280;3097;42.692;23.278;2023-04-25T02:16:48;94174.66;;;11.93;100.00
6132;BME280;3097;42.692;23.278;2023-04-25T02:19:14;94150.06;;;11.86;100.00
6132;BME280;3097;42.692;23.278;2023-04-25T02:21:39;94149.53;;;11.89;100.00
6132;BME280;3097;42.692;23.278;2023-04-25T02:24:05;94162.22;;;11.90;100.00
6132;BME280;3097;42.692;23.278;2023-04-25T02:26:31;94158.47;;;11.76;100.00
6132;BME280;3097;42.692;23.278;2023-04-25T02:28:57;94149.47;;;11.79;100.00
6132;BME280;3097;42.692;23.278;2023-04-25T02:31:22;94121.13;;;11.57;100.00
6132;BME280;3097;42.692;23.278;2023-04-25T02:33:48;94143.31;;;11.58;100.00
6132;BME280;3097;42.692;23.278;2023-04-25T02:36:13;94136.75;;;11.72;100.00
6132;BME280;3097;42.692;23.278;2023-04-25T02:38:40;94144.41;;;11.62;100.00
6132;BME280;3097;42.692;23.278;2023-04-25T02:41:05;94139.44;;;11.55;100.00
6132;BME280;3097;42.692;23.278;2023-04-25T02:43:31;94122.09;;;11.51;100.00
6132;BME280;3097;42.692;23.278;2023-04-25T02:45:56;94136.47;;;11.42;100.00
6132;BME280;3097;42.692;23.278;2023-04-25T02:48:21;94127.75;;;11.48;100.00
6132;BME280;3097;42.692;23.278;2023-04-25T02:50:47;94093.44;;;11.20;100.00
6132;BME280;3097;42.692;23.278;2023-04-25T02:53:12;94128.22;;;11.45;100.00
6132;BME280;3097;42.692;23.278;2023-04-25T02:55:38;94130.28;;;11.43;100.00
6132;BME280;3097;42.692;23.278;2023-04-25T02:58:04;94137.53;;;11.46;100.00
6132;BME280;3097;42.692;23.278;2023-04-25T03:00:29;94128.75;;;11.42;100.00
6132;BME280;3097;42.692;23.278;2023-04-25T03:02:55;94126.28;;;11.30;100.00
6132;BME280;3097;42.692;23.278;2023-04-25T03:05:20;94119.75;;;11.22;100.00
6132;BME280;3097;42.692;23.278;2023-04-25T03:07:46;94111.59;;;11.31;100.00
6132;BME280;3097;42.692;23.278;2023-04-25T03:10:11;94053.50;;;10.96;100.00
6132;BME280;3097;42.692;23.278;2023-04-25T03:12:37;94118.00;;;11.28;100.00
6132;BME280;3097;42.692;23.278;2023-04-25T03:15:03;94082.69;;;11.02;100.00
6132;BME280;3097;42.692;23.278;2023-04-25T03:17:29;94063.69;;;10.86;100.00
6132;BME280;3097;42.692;23.278;2023-04-25T03:19:55;94115.94;;;11.25;100.00
6132;BME280;3097;42.692;23.278;2023-04-25T03:22:21;94111.78;;;11.24;100.00
6132;BME280;3097;42.692;23.278;2023-04-25T03:24:46;94109.69;;;11.21;100.00
6132;BME280;3097;42.692;23.278;2023-04-25T03:27:12;94114.41;;;11.02;100.00
6132;BME280;3097;42.692;23.278;2023-04-25T03:29:38;94103.00;;;10.98;100.00
6132;BME280;3097;42.692;23.278;2023-04-25T03:32:03;94112.66;;;11.08;100.00
6132;BME280;3097;42.692;23.278;2023-04-25T03:34:29;94108.38;;;11.18;100.00
6132;BME280;3097;42.692;23.278;2023-04-25T03:36:54;94108.38;;;11.18;100.00
6132;BME280;3097;42.692;23.278;2023-04-25T03:39:20;94107.16;;;11.26;100.00
6132;BME280;3097;42.692;23.278;2023-04-25T03:41:46;94101.03;;;11.32;100.00
6132;BME280;3097;42.692;23.278;2023-04-25T03:44:11;94119.88;;;11.33;100.00
6132;BME280;3097;42.692;23.278;2023-04-25T03:46:37;94089.25;;;11.14;100.00
6132;BME280;3097;42.692;23.278;2023-04-25T03:49:02;94106.78;;;11.39;100.00
6132;BME280;3097;42.692;23.278;2023-04-25T03:51:27;94105.78;;;11.45;100.00
6132;BME280;3097;42.692;23.278;2023-04-25T03:53:53;94099.94;;;11.55;100.00
6132;BME280;3097;42.692;23.278;2023-04-25T03:56:18;94098.28;;;11.44;100.00
6132;BME280;3097;42.692;23.278;2023-04-25T03:58:44;94112.81;;;11.50;100.00
6132;BME280;3097;42.692;23.278;2023-04-25T04:01:10;94117.13;;;11.71;100.00
6132;BME280;3097;42.692;23.278;2023-04-25T04:03:35;94132.66;;;11.76;100.00
6132;BME280;3097;42.692;23.278;2023-04-25T04:06:02;94117.78;;;11.88;100.00
6132;BME280;3097;42.692;23.278;2023-04-25T04:08:32;94117.59;;;11.95;100.00
6132;BME280;3097;42.692;23.278;2023-04-25T04:10:58;94122.84;;;12.10;100.00
6132;BME280;3097;42.692;23.278;2023-04-25T04:13:26;94129.81;;;12.10;100.00
6132;BME280;3097;42.692;23.278;2023-04-25T04:15:51;94117.19;;;12.18;100.00
6132;BME280;3097;42.692;23.278;2023-04-25T04:18:17;94103.00;;;12.16;100.00
6132;BME280;3097;42.692;23.278;2023-04-25T04:20:42;94117.69;;;12.10;100.00
6132;BME280;3097;42.692;23.278;2023-04-25T04:23:09;94119.06;;;12.23;100.00
6132;BME280;3097;42.692;23.278;2023-04-25T04:25:34;94112.66;;;12.35;100.00
6132;BME280;3097;42.692;23.278;2023-04-25T04:28:00;94102.28;;;12.25;100.00
6132;BME280;3097;42.692;23.278;2023-04-25T04:30:26;94050.25;;;12.12;100.00
6132;BME280;3097;42.692;23.278;2023-04-25T04:32:55;94114.53;;;12.45;100.00
6132;BME280;3097;42.692;23.278;2023-04-25T04:35:22;94119.41;;;12.41;100.00
6132;BME280;3097;42.692;23.278;2023-04-25T04:37:48;94092.75;;;12.36;100.00
6132;BME280;3097;42.692;23.278;2023-04-25T04:40:14;94114.00;;;12.43;100.00
6132;BME280;3097;42.692;23.278;2023-04-25T04:42:44;94113.69;;;12.34;100.00
6132;BME280;3097;42.692;23.278;2023-04-25T04:45:12;94126.34;;;12.36;100.00
6132;BME280;3097;42.692;23.278;2023-04-25T04:47:38;94127.44;;;12.45;100.00
6132;BME280;3097;42.692;23.278;2023-04-25T04:50:08;94128.47;;;12.39;100.00
6132;BME280;3097;42.692;23.278;2023-04-25T04:52:35;94121.41;;;12.29;100.00
6132;BME280;3097;42.692;23.278;2023-04-25T04:55:02;94115.47;;;12.29;100.00
6132;BME280;3097;42.692;23.278;2023-04-25T04:57:28;94131.88;;;12.08;100.00
6132;BME280;3097;42.692;23.278;2023-04-25T04:59:54;94131.97;;;11.86;100.00
6132;BME280;3097;42.692;23.278;2023-04-25T05:02:19;94135.66;;;11.95;100.00
6132;BME280;3097;42.692;23.278;2023-04-25T05:04:45;94140.06;;;11.94;100.00
6132;BME280;3097;42.692;23.278;2023-04-25T05:07:10;94135.69;;;12.00;100.00
6132;BME280;3097;42.692;23.278;2023-04-25T05:09:36;94137.03;;;12.08;100.00
6132;BME280;3097;42.692;23.278;2023-04-25T05:12:01;94143.19;;;12.01;100.00
6132;BME280;3097;42.692;23.278;2023-04-25T05:14:28;94135.97;;;12.03;100.00
6132;BME280;3097;42.692;23.278;2023-04-25T05:16:53;94146.16;;;12.20;100.00
6132;BME280;3097;42.692;23.278;2023-04-25T05:19:19;94156.03;;;12.28;100.00
6132;BME280;3097;42.692;23.278;2023-04-25T05:21:44;94158.41;;;12.35;100.00
6132;BME280;3097;42.692;23.278;2023-04-25T05:24:09;94156.91;;;12.44;100.00
6132;BME280;3097;42.692;23.278;2023-04-25T05:26:35;94146.78;;;12.37;100.00
6132;BME280;3097;42.692;23.278;2023-04-25T05:29:00;94140.06;;;12.36;100.00
6132;BME280;3097;42.692;23.278;2023-04-25T05:31:26;94149.91;;;12.39;100.00
6132;BME280;3097;42.692;23.278;2023-04-25T05:33:51;94146.56;;;12.44;100.00
6132;BME280;3097;42.692;23.278;2023-04-25T05:36:20;94115.19;;;12.25;100.00
6132;BME280;3097;42.692;23.278;2023-04-25T05:38:45;94102.78;;;12.22;100.00
6132;BME280;3097;42.692;23.278;2023-04-25T05:41:11;94121.19;;;12.36;100.00
6132;BME280;3097;42.692;23.278;2023-04-25T05:43:36;94145.84;;;12.54;100.00
6132;BME280;3097;42.692;23.278;2023-04-25T05:46:02;94126.97;;;12.53;100.00
6132;BME280;3097;42.692;23.278;2023-04-25T05:48:27;94138.16;;;12.69;99.87
6132;BME280;3097;42.692;23.278;2023-04-25T05:50:52;94156.59;;;12.88;99.50
6132;BME280;3097;42.692;23.278;2023-04-25T05:53:19;94125.78;;;12.76;99.41
6132;BME280;3097;42.692;23.278;2023-04-25T05:55:44;94139.63;;;13.12;98.93
6132;BME280;3097;42.692;23.278;2023-04-25T05:58:10;94119.41;;;13.09;98.37
6132;BME280;3097;42.692;23.278;2023-04-25T06:00:35;94126.50;;;13.39;98.16
6132;BME280;3097;42.692;23.278;2023-04-25T06:03:01;94135.59;;;13.62;96.68
6132;BME280;3097;42.692;23.278;2023-04-25T06:05:26;94139.50;;;13.79;94.81
6132;BME280;3097;42.692;23.278;2023-04-25T06:07:52;94137.69;;;13.85;93.54
6132;BME280;3097;42.692;23.278;2023-04-25T06:10:17;94144.97;;;13.98;94.10
6132;BME280;3097;42.692;23.278;2023-04-25T06:12:43;94144.69;;;14.05;93.38
6132;BME280;3097;42.692;23.278;2023-04-25T06:15:09;94155.56;;;14.12;92.88
6132;BME280;3097;42.692;23.278;2023-04-25T06:17:35;94127.59;;;14.04;93.46
6132;BME280;3097;42.692;23.278;2023-04-25T06:20:01;94141.31;;;14.19;93.75
6132;BME280;3097;42.692;23.278;2023-04-25T06:22:27;94131.22;;;14.03;92.58
6132;BME280;3097;42.692;23.278;2023-04-25T06:24:52;94133.81;;;13.98;93.12
6132;BME280;3097;42.692;23.278;2023-04-25T06:27:18;94153.25;;;14.20;93.84
6132;BME280;3097;42.692;23.278;2023-04-25T06:29:43;94144.41;;;14.47;93.23
6132;BME280;3097;42.692;23.278;2023-04-25T06:32:08;94155.09;;;15.09;91.80
6132;BME280;3097;42.692;23.278;2023-04-25T06:34:34;94141.25;;;15.29;87.24
6132;BME280;3097;42.692;23.278;2023-04-25T06:36:59;94154.28;;;16.89;85.09
6132;BME280;3097;42.692;23.278;2023-04-25T06:39:25;94164.13;;;17.96;76.50
6132;BME280;3097;42.692;23.278;2023-04-25T06:41:50;94123.97;;;17.78;75.48
6132;BME280;3097;42.692;23.278;2023-04-25T06:44:16;94143.13;;;17.68;75.06
6132;BME280;3097;42.692;23.278;2023-04-25T06:46:41;94155.78;;;17.37;76.98
6132;BME280;3097;42.692;23.278;2023-04-25T06:49:07;94149.16;;;16.84;77.51
6132;BME280;3097;42.692;23.278;2023-04-25T06:51:32;94159.84;;;16.53;78.18
6132;BME280;3097;42.692;23.278;2023-04-25T06:53:58;94156.88;;;16.36;78.13
6132;BME280;3097;42.692;23.278;2023-04-25T06:56:24;94156.75;;;15.88;79.00
6132;BME280;3097;42.692;23.278;2023-04-25T06:58:49;94153.03;;;15.61;81.35
6132;BME280;3097;42.692;23.278;2023-04-25T07:01:15;94154.09;;;15.49;83.05
6132;BME280;3097;42.692;23.278;2023-04-25T07:03:40;94156.28;;;15.32;82.35
6132;BME280;3097;42.692;23.278;2023-04-25T07:06:06;94153.47;;;15.19;84.02
6132;BME280;3097;42.692;23.278;2023-04-25T07:08:31;94158.22;;;15.06;84.39
6132;BME280;3097;42.692;23.278;2023-04-25T07:10:57;94155.41;;;15.03;85.00
6132;BME280;3097;42.692;23.278;2023-04-25T07:13:22;94151.03;;;14.83;84.29
6132;BME280;3097;42.692;23.278;2023-04-25T07:15:48;94143.34;;;14.58;84.99
6132;BME280;3097;42.692;23.278;2023-04-25T07:18:13;94157.34;;;14.57;86.35
6132;BME280;3097;42.692;23.278;2023-04-25T07:20:39;94109.44;;;14.19;87.61
6132;BME280;3097;42.692;23.278;2023-04-25T07:23:05;94151.91;;;14.53;87.80
6132;BME280;3097;42.692;23.278;2023-04-25T07:25:30;94153.72;;;14.58;86.79
6132;BME280;3097;42.692;23.278;2023-04-25T07:27:56;94152.16;;;14.62;87.81
6132;BME280;3097;42.692;23.278;2023-04-25T07:30:22;94108.06;;;14.52;87.13
6132;BME280;3097;42.692;23.278;2023-04-25T07:32:48;94149.72;;;14.91;86.71
6132;BME280;3097;42.692;23.278;2023-04-25T07:35:14;94134.94;;;14.86;85.72
6132;BME280;3097;42.692;23.278;2023-04-25T07:37:39;94138.06;;;14.88;86.34
6132;BME280;3097;42.692;23.278;2023-04-25T07:40:05;94141.06;;;15.16;84.84
6132;BME280;3097;42.692;23.278;2023-04-25T07:42:31;94114.84;;;15.17;85.75
6132;BME280;3097;42.692;23.278;2023-04-25T07:44:57;94140.97;;;15.31;83.40
6132;BME280;3097;42.692;23.278;2023-04-25T07:47:22;94116.78;;;15.40;81.99
6132;BME280;3097;42.692;23.278;2023-04-25T07:49:48;94131.50;;;15.50;83.85
6132;BME280;3097;42.692;23.278;2023-04-25T07:52:14;94133.56;;;15.63;84.06
6132;BME280;3097;42.692;23.278;2023-04-25T07:54:39;94121.13;;;15.89;84.37
6132;BME280;3097;42.692;23.278;2023-04-25T07:57:04;94134.28;;;16.03;81.28
6132;BME280;3097;42.692;23.278;2023-04-25T07:59:31;94139.66;;;16.11;80.77
6132;BME280;3097;42.692;23.278;2023-04-25T08:01:57;94128.16;;;16.17;81.77
6132;BME280;3097;42.692;23.278;2023-04-25T08:04:23;94126.31;;;16.23;81.23
6132;BME280;3097;42.692;23.278;2023-04-25T08:06:48;94125.06;;;16.44;82.03
6132;BME280;3097;42.692;23.278;2023-04-25T08:09:15;94128.59;;;16.82;82.57
6132;BME280;3097;42.692;23.278;2023-04-25T08:11:40;94118.19;;;17.44;81.13
6132;BME280;3097;42.692;23.278;2023-04-25T08:14:06;94124.78;;;17.92;74.49
6132;BME280;3097;42.692;23.278;2023-04-25T08:16:32;94123.50;;;18.08;72.89
6132;BME280;3097;42.692;23.278;2023-04-25T08:18:59;94112.00;;;18.09;72.97
6132;BME280;3097;42.692;23.278;2023-04-25T08:21:24;94103.59;;;18.12;73.97
6132;BME280;3097;42.692;23.278;2023-04-25T08:23:52;94112.66;;;18.47;73.58
6132;BME280;3097;42.692;23.278;2023-04-25T08:26:17;94105.22;;;18.82;75.10
6132;BME280;3097;42.692;23.278;2023-04-25T08:28:43;94088.91;;;18.76;70.99
6132;BME280;3097;42.692;23.278;2023-04-25T08:31:08;94123.13;;;18.88;69.51
6132;BME280;3097;42.692;23.278;2023-04-25T08:33:33;94128.16;;;18.71;66.71
6132;BME280;3097;42.692;23.278;2023-04-25T08:35:59;94026.00;;;17.58;67.51
6132;BME280;3097;42.692;23.278;2023-04-25T08:38:24;94137.44;;;18.17;72.55
6132;BME280;3097;42.692;23.278;2023-04-25T08:40:50;94080.69;;;17.77;73.10
6132;BME280;3097;42.692;23.278;2023-04-25T08:43:20;94124.09;;;17.87;73.66
6132;BME280;3097;42.692;23.278;2023-04-25T08:45:46;94115.22;;;17.50;74.11
6132;BME280;3097;42.692;23.278;2023-04-25T08:48:13;94125.34;;;17.52;73.59
6132;BME280;3097;42.692;23.278;2023-04-25T08:50:49;94100.00;;;17.57;73.72
6132;BME280;3097;42.692;23.278;2023-04-25T08:53:16;94108.59;;;17.95;74.45
6132;BME280;3097;42.692;23.278;2023-04-25T08:55:43;94069.94;;;17.97;70.58
6132;BME280;3097;42.692;23.278;2023-04-25T08:58:10;94101.31;;;18.25;68.25
6132;BME280;3097;42.692;23.278;2023-04-25T09:00:36;94065.81;;;17.96;67.26
6132;BME280;3097;42.692;23.278;2023-04-25T09:03:01;94105.34;;;18.17;68.76
6132;BME280;3097;42.692;23.278;2023-04-25T09:05:28;94098.16;;;17.95;68.81
6132;BME280;3097;42.692;23.278;2023-04-25T09:07:54;94093.31;;;17.89;69.10
6132;BME280;3097;42.692;23.278;2023-04-25T09:10:21;94101.03;;;17.94;69.93
6132;BME280;3097;42.692;23.278;2023-04-25T09:13:11;94096.31;;;17.96;71.07
6132;BME280;3097;42.692;23.278;2023-04-25T09:16:00;94090.75;;;18.16;72.47
6132;BME280;3097;42.692;23.278;2023-04-25T09:18:27;94095.44;;;18.33;70.36
6132;BME280;3097;42.692;23.278;2023-04-25T09:21:04;94097.53;;;18.31;70.57
6132;BME280;3097;42.692;23.278;2023-04-25T09:23:30;94083.16;;;18.33;71.74
6132;BME280;3097;42.692;23.278;2023-04-25T09:25:56;94086.16;;;18.27;69.63
6132;BME280;3097;42.692;23.278;2023-04-25T09:28:25;94074.22;;;18.21;68.57
6132;BME280;3097;42.692;23.278;2023-04-25T09:30:55;94077.44;;;18.31;70.62
6132;BME280;3097;42.692;23.278;2023-04-25T09:33:33;94078.13;;;18.50;69.45
6132;BME280;3097;42.692;23.278;2023-04-25T09:36:10;94095.97;;;18.62;60.76
6132;BME280;3097;42.692;23.278;2023-04-25T09:38:45;94063.66;;;18.58;63.42
6132;BME280;3097;42.692;23.278;2023-04-25T09:41:11;94070.81;;;18.66;62.66
6132;BME280;3097;42.692;23.278;2023-04-25T09:43:38;94087.44;;;18.98;58.53
6132;BME280;3097;42.692;23.278;2023-04-25T09:46:08;94054.66;;;18.91;61.48
6132;BME280;3097;42.692;23.278;2023-04-25T09:48:34;94079.31;;;19.35;68.41
6132;BME280;3097;42.692;23.278;2023-04-25T09:51:10;94082.22;;;19.33;69.26
6132;BME280;3097;42.692;23.278;2023-04-25T09:53:37;94081.25;;;18.93;69.11
6132;BME280;3097;42.692;23.278;2023-04-25T09:56:04;94081.06;;;18.76;68.94
6132;BME280;3097;42.692;23.278;2023-04-25T09:58:32;94062.69;;;18.81;68.72
6132;BME280;3097;42.692;23.278;2023-04-25T10:01:00;94077.31;;;19.18;69.23
6132;BME280;3097;42.692;23.278;2023-04-25T10:03:29;94087.66;;;19.37;66.61
6132;BME280;3097;42.692;23.278;2023-04-25T10:05:59;94067.31;;;19.34;61.86
6132;BME280;3097;42.692;23.278;2023-04-25T10:08:25;94076.03;;;18.93;64.05
6132;BME280;3097;42.692;23.278;2023-04-25T10:10:54;94083.69;;;18.76;65.41
6132;BME280;3097;42.692;23.278;2023-04-25T10:13:20;94098.19;;;18.69;65.31
6132;BME280;3097;42.692;23.278;2023-04-25T10:15:46;94098.44;;;18.53;66.69
6132;BME280;3097;42.692;23.278;2023-04-25T10:18:12;94094.94;;;18.31;62.33
6132;BME280;3097;42.692;23.278;2023-04-25T10:20:38;93972.69;;;17.51;62.06
6132;BME280;3097;42.692;23.278;2023-04-25T10:23:12;94090.88;;;18.52;63.95
6132;BME280;3097;42.692;23.278;2023-04-25T10:25:38;94071.97;;;18.60;59.56
6132;BME280;3097;42.692;23.278;2023-04-25T10:28:05;94079.22;;;18.90;61.54
6132;BME280;3097;42.692;23.278;2023-04-25T10:30:31;94071.56;;;19.08;61.35
6132;BME280;3097;42.692;23.278;2023-04-25T10:32:58;94084.13;;;19.06;60.68
6132;BME280;3097;42.692;23.278;2023-04-25T10:35:26;94101.63;;;19.05;58.57
6132;BME280;3097;42.692;23.278;2023-04-25T10:38:13;94094.19;;;18.58;62.22
6132;BME280;3097;42.692;23.278;2023-04-25T10:40:39;94086.50;;;18.20;67.61
6132;BME280;3097;42.692;23.278;2023-04-25T10:46:12;94052.13;;;17.72;65.66
6132;BME280;3097;42.692;23.278;2023-04-25T10:48:44;94073.22;;;17.89;67.50
6132;BME280;3097;42.692;23.278;2023-04-25T10:51:11;94078.84;;;17.96;65.15
6132;BME280;3097;42.692;23.278;2023-04-25T10:53:37;94070.53;;;18.08;67.43
6132;BME280;3097;42.692;23.278;2023-04-25T10:56:22;94074.63;;;18.14;61.96
6132;BME280;3097;42.692;23.278;2023-04-25T10:58:48;94069.41;;;18.14;63.00
6132;BME280;3097;42.692;23.278;2023-04-25T11:01:15;93964.47;;;17.44;61.44
6132;BME280;3097;42.692;23.278;2023-04-25T11:03:44;94065.22;;;18.13;63.47
6132;BME280;3097;42.692;23.278;2023-04-25T11:06:29;94070.19;;;18.42;63.40
6132;BME280;3097;42.692;23.278;2023-04-25T11:08:56;94066.25;;;18.58;60.04
6132;BME280;3097;42.692;23.278;2023-04-25T11:11:23;94065.22;;;18.59;62.30
6132;BME280;3097;42.692;23.278;2023-04-25T11:13:49;94056.50;;;18.77;57.24
6132;BME280;3097;42.692;23.278;2023-04-25T11:16:16;94059.59;;;18.79;58.97
6132;BME280;3097;42.692;23.278;2023-04-25T11:18:42;94069.06;;;18.75;59.96
6132;BME280;3097;42.692;23.278;2023-04-25T11:21:08;94067.00;;;18.45;59.83
6132;BME280;3097;42.692;23.278;2023-04-25T11:23:34;94079.28;;;18.31;59.79
6132;BME280;3097;42.692;23.278;2023-04-25T11:25:59;94068.03;;;18.03;57.56
6132;BME280;3097;42.692;23.278;2023-04-25T11:28:26;94065.78;;;17.64;59.93
6132;BME280;3097;42.692;23.278;2023-04-25T11:30:52;94068.75;;;17.38;60.21
6132;BME280;3097;42.692;23.278;2023-04-25T11:33:18;94083.31;;;17.02;61.63
6132;BME280;3097;42.692;23.278;2023-04-25T11:35:47;94084.50;;;16.91;62.44
6132;BME280;3097;42.692;23.278;2023-04-25T11:38:13;94035.69;;;16.35;62.60
6132;BME280;3097;42.692;23.278;2023-04-25T11:40:38;94089.69;;;16.43;63.55
6132;BME280;3097;42.692;23.278;2023-04-25T11:43:04;94074.41;;;16.13;64.59
6132;BME280;3097;42.692;23.278;2023-04-25T11:45:30;94097.75;;;16.18;67.61
6132;BME280;3097;42.692;23.278;2023-04-25T11:47:56;94080.25;;;16.00;71.53
6132;BME280;3097;42.692;23.278;2023-04-25T11:50:21;94054.25;;;16.00;73.25
6132;BME280;3097;42.692;23.278;2023-04-25T11:52:48;94061.84;;;16.20;75.38
6132;BME280;3097;42.692;23.278;2023-04-25T11:55:18;94059.44;;;16.52;78.37
6132;BME280;3097;42.692;23.278;2023-04-25T11:57:46;94050.72;;;16.86;77.07
6132;BME280;3097;42.692;23.278;2023-04-25T12:00:20;94015.47;;;16.93;76.71
6132;BME280;3097;42.692;23.278;2023-04-25T12:02:47;94042.03;;;17.47;74.97
6132;BME280;3097;42.692;23.278;2023-04-25T12:05:15;94049.22;;;17.55;70.32
6132;BME280;3097;42.692;23.278;2023-04-25T12:07:42;94054.66;;;17.58;66.81
6132;BME280;3097;42.692;23.278;2023-04-25T12:10:12;94050.94;;;17.64;69.49
6132;BME280;3097;42.692;23.278;2023-04-25T12:12:42;94049.44;;;17.58;66.58
6132;BME280;3097;42.692;23.278;2023-04-25T12:15:37;94048.31;;;17.46;68.34
6132;BME280;3097;42.692;23.278;2023-04-25T12:18:06;94051.00;;;17.40;65.88
6132;BME280;3097;42.692;23.278;2023-04-25T12:20:31;94049.16;;;17.41;63.98
6132;BME280;3097;42.692;23.278;2023-04-25T12:22:57;94048.41;;;17.40;65.97
6132;BME280;3097;42.692;23.278;2023-04-25T12:25:39;94078.44;;;17.52;67.39
6132;BME280;3097;42.692;23.278;2023-04-25T12:28:19;94109.06;;;17.65;66.71
6132;BME280;3097;42.692;23.278;2023-04-25T12:33:21;94110.41;;;16.24;72.21
6132;BME280;3097;42.692;23.278;2023-04-25T12:35:46;94108.13;;;15.50;77.11
6132;BME280;3097;42.692;23.278;2023-04-25T12:38:29;94117.75;;;15.00;80.41
6132;BME280;3097;42.692;23.278;2023-04-25T12:40:56;94111.41;;;14.67;84.04
6132;BME280;3097;42.692;23.278;2023-04-25T12:43:21;94114.31;;;14.51;82.67
6132;BME280;3097;42.692;23.278;2023-04-25T12:45:54;94117.69;;;14.31;82.39
6132;BME280;3097;42.692;23.278;2023-04-25T12:48:20;94113.06;;;14.18;82.95
6132;BME280;3097;42.692;23.278;2023-04-25T12:50:46;94095.72;;;14.03;86.14
6132;BME280;3097;42.692;23.278;2023-04-25T12:53:16;94115.41;;;14.09;87.49
6132;BME280;3097;42.692;23.278;2023-04-25T12:55:42;94110.69;;;14.21;88.40
6132;BME280;3097;42.692;23.278;2023-04-25T12:58:07;94114.84;;;14.22;88.64
6132;BME280;3097;42.692;23.278;2023-04-25T13:00:33;94113.56;;;14.15;89.15
6132;BME280;3097;42.692;23.278;2023-04-25T13:02:58;94125.50;;;14.26;89.68
6132;BME280;3097;42.692;23.278;2023-04-25T13:05:24;94125.25;;;14.17;90.88
6132;BME280;3097;42.692;23.278;2023-04-25T13:07:50;94076.56;;;13.89;92.31
6132;BME280;3097;42.692;23.278;2023-04-25T13:10:16;94096.47;;;14.09;92.87